sensor_id;sensor_type;location;lat;lon;timestamp;P1;durP1;ratioP1;P2;durP2;ratioP2
71763;SDS011;59602;52.142;5.408;2022-08-19T00:01:38;5.15;;;2.60;;
71763;SDS011;59602;52.142;5.408;2022-08-19T00:04:09;3.80;;;2.30;;
71763;SDS011;59602;52.142;5.408;2022-08-19T00:06:38;6.05;;;3.10;;
71763;SDS011;59602;52.142;5.408;2022-08-19T00:09:06;4.40;;;2.80;;
71763;SDS011;59602;52.142;5.408;2022-08-19T00:11:35;3.60;;;2.60;;
71763;SDS011;59602;52.142;5.408;2022-08-19T00:14:04;6.13;;;2.85;;
71763;SDS011;59602;52.142;5.408;2022-08-19T00:16:32;6.13;;;2.67;;
71763;SDS011;59602;52.142;5.408;2022-08-19T00:18:59;3.72;;;2.80;;
71763;SDS011;59602;52.142;5.408;2022-08-19T00:21:25;4.13;;;2.97;;
71763;SDS011;59602;52.142;5.408;2022-08-19T00:23:54;5.68;;;2.78;;
71763;SDS011;59602;52.142;5.408;2022-08-19T00:26:21;4.40;;;2.45;;
71763;SDS011;59602;52.142;5.408;2022-08-19T00:28:47;3.50;;;2.43;;
71763;SDS011;59602;52.142;5.408;2022-08-19T00:31:14;7.13;;;2.97;;
71763;SDS011;59602;52.142;5.408;2022-08-19T00:33:41;4.20;;;2.60;;
71763;SDS011;59602;52.142;5.408;2022-08-19T00:36:09;4.70;;;3.42;;
71763;SDS011;59602;52.142;5.408;2022-08-19T00:38:36;4.53;;;2.90;;
71763;SDS011;59602;52.142;5.408;2022-08-19T00:41:05;3.77;;;2.60;;
71763;SDS011;59602;52.142;5.408;2022-08-19T00:43:32;3.80;;;2.53;;
71763;SDS011;59602;52.142;5.408;2022-08-19T00:45:59;4.28;;;2.63;;
71763;SDS011;59602;52.142;5.408;2022-08-19T00:48:26;4.53;;;2.45;;
71763;SDS011;59602;52.142;5.408;2022-08-19T00:50:52;4.40;;;2.67;;
71763;SDS011;59602;52.142;5.408;2022-08-19T00:53:21;5.53;;;3.00;;
71763;SDS011;59602;52.142;5.408;2022-08-19T00:55:50;3.90;;;2.13;;
71763;SDS011;59602;52.142;5.408;2022-08-19T00:58:20;4.07;;;2.65;;
71763;SDS011;59602;52.142;5.408;2022-08-19T01:00:50;3.33;;;2.45;;
71763;SDS011;59602;52.142;5.408;2022-08-19T01:03:18;3.42;;;2.42;;
71763;SDS011;59602;52.142;5.408;2022-08-19T01:05:46;4.07;;;2.60;;
71763;SDS011;59602;52.142;5.408;2022-08-19T01:08:15;4.03;;;2.47;;
71763;SDS011;59602;52.142;5.408;2022-08-19T01:10:44;4.43;;;2.50;;
71763;SDS011;59602;52.142;5.408;2022-08-19T01:13:15;3.83;;;2.45;;
71763;SDS011;59602;52.142;5.408;2022-08-19T01:15:46;6.10;;;2.75;;
71763;SDS011;59602;52.142;5.408;2022-08-19T01:18:16;4.07;;;2.57;;
71763;SDS011;59602;52.142;5.408;2022-08-19T01:20:45;4.65;;;2.67;;
71763;SDS011;59602;52.142;5.408;2022-08-19T01:23:13;4.07;;;2.35;;
71763;SDS011;59602;52.142;5.408;2022-08-19T01:28:20;3.03;;;2.30;;
71763;SDS011;59602;52.142;5.408;2022-08-19T01:31:05;3.57;;;2.33;;
71763;SDS011;59602;52.142;5.408;2022-08-19T01:33:53;5.30;;;2.50;;
71763;SDS011;59602;52.142;5.408;2022-08-19T01:36:23;4.40;;;2.47;;
71763;SDS011;59602;52.142;5.408;2022-08-19T01:38:54;3.38;;;2.42;;
71763;SDS011;59602;52.142;5.408;2022-08-19T01:41:21;5.38;;;2.80;;
71763;SDS011;59602;52.142;5.408;2022-08-19T01:43:50;5.20;;;2.27;;
71763;SDS011;59602;52.142;5.408;2022-08-19T01:46:37;5.38;;;2.42;;
71763;SDS011;59602;52.142;5.408;2022-08-19T01:49:04;4.35;;;2.30;;
71763;SDS011;59602;52.142;5.408;2022-08-19T01:51:34;5.53;;;2.17;;
71763;SDS011;59602;52.142;5.408;2022-08-19T01:54:05;5.05;;;2.67;;
71763;SDS011;59602;52.142;5.408;2022-08-19T01:56:33;5.27;;;2.60;;
71763;SDS011;59602;52.142;5.408;2022-08-19T01:59:02;5.32;;;3.03;;
71763;SDS011;59602;52.142;5.408;2022-08-19T02:01:30;5.90;;;2.75;;
71763;SDS011;59602;52.142;5.408;2022-08-19T02:03:58;3.90;;;2.33;;
71763;SDS011;59602;52.142;5.408;2022-08-19T02:06:28;4.47;;;2.75;;
71763;SDS011;59602;52.142;5.408;2022-08-19T02:08:55;4.03;;;2.80;;
71763;SDS011;59602;52.142;5.408;2022-08-19T02:11:24;6.13;;;3.13;;
71763;SDS011;59602;52.142;5.408;2022-08-19T02:13:54;7.00;;;3.50;;
71763;SDS011;59602;52.142;5.408;2022-08-19T02:16:21;4.93;;;3.10;;
71763;SDS011;59602;52.142;5.408;2022-08-19T02:18:48;5.75;;;3.55;;
71763;SDS011;59602;52.142;5.408;2022-08-19T02:21:17;6.03;;;2.87;;
71763;SDS011;59602;52.142;5.408;2022-08-19T02:23:45;4.25;;;2.83;;
71763;SDS011;59602;52.142;5.408;2022-08-19T02:26:12;4.10;;;2.90;;
71763;SDS011;59602;52.142;5.408;2022-08-19T02:28:39;6.60;;;3.97;;
71763;SDS011;59602;52.142;5.408;2022-08-19T02:31:09;7.10;;;3.60;;
71763;SDS011;59602;52.142;5.408;2022-08-19T02:33:36;4.90;;;3.30;;
71763;SDS011;59602;52.142;5.408;2022-08-19T02:36:03;5.07;;;3.33;;
71763;SDS011;59602;52.142;5.408;2022-08-19T02:38:31;4.68;;;3.08;;
71763;SDS011;59602;52.142;5.408;2022-08-19T02:40:59;4.22;;;2.85;;
71763;SDS011;59602;52.142;5.408;2022-08-19T02:43:28;4.63;;;2.58;;
71763;SDS011;59602;52.142;5.408;2022-08-19T02:45:59;4.30;;;2.87;;
71763;SDS011;59602;52.142;5.408;2022-08-19T02:48:26;4.32;;;2.53;;
71763;SDS011;59602;52.142;5.408;2022-08-19T02:50:53;5.50;;;3.20;;
71763;SDS011;59602;52.142;5.408;2022-08-19T02:53:22;5.90;;;3.30;;
71763;SDS011;59602;52.142;5.408;2022-08-19T02:55:50;6.30;;;3.08;;
71763;SDS011;59602;52.142;5.408;2022-08-19T02:58:18;3.80;;;2.57;;
71763;SDS011;59602;52.142;5.408;2022-08-19T03:00:46;6.20;;;3.25;;
71763;SDS011;59602;52.142;5.408;2022-08-19T03:03:15;5.43;;;3.13;;
71763;SDS011;59602;52.142;5.408;2022-08-19T03:05:43;7.43;;;3.60;;
71763;SDS011;59602;52.142;5.408;2022-08-19T03:08:21;5.30;;;3.33;;
71763;SDS011;59602;52.142;5.408;2022-08-19T03:10:47;8.30;;;4.07;;
71763;SDS011;59602;52.142;5.408;2022-08-19T03:13:15;5.72;;;3.80;;
71763;SDS011;59602;52.142;5.408;2022-08-19T03:15:44;8.35;;;4.57;;
71763;SDS011;59602;52.142;5.408;2022-08-19T03:18:13;9.18;;;5.03;;
71763;SDS011;59602;52.142;5.408;2022-08-19T03:20:43;10.15;;;5.18;;
71763;SDS011;59602;52.142;5.408;2022-08-19T03:23:11;8.73;;;4.73;;
71763;SDS011;59602;52.142;5.408;2022-08-19T03:25:40;8.82;;;4.82;;
71763;SDS011;59602;52.142;5.408;2022-08-19T03:28:10;7.40;;;4.63;;
71763;SDS011;59602;52.142;5.408;2022-08-19T03:30:39;8.25;;;4.40;;
71763;SDS011;59602;52.142;5.408;2022-08-19T03:33:09;8.27;;;4.65;;
71763;SDS011;59602;52.142;5.408;2022-08-19T03:35:43;8.83;;;5.47;;
71763;SDS011;59602;52.142;5.408;2022-08-19T03:38:11;9.18;;;5.18;;
71763;SDS011;59602;52.142;5.408;2022-08-19T03:40:37;8.77;;;4.90;;
71763;SDS011;59602;52.142;5.408;2022-08-19T03:43:04;9.43;;;5.13;;
71763;SDS011;59602;52.142;5.408;2022-08-19T03:45:31;8.38;;;4.93;;
71763;SDS011;59602;52.142;5.408;2022-08-19T03:47:58;8.90;;;5.13;;
71763;SDS011;59602;52.142;5.408;2022-08-19T03:50:24;7.82;;;4.88;;
71763;SDS011;59602;52.142;5.408;2022-08-19T03:52:51;8.98;;;5.50;;
71763;SDS011;59602;52.142;5.408;2022-08-19T03:55:18;9.85;;;5.20;;
71763;SDS011;59602;52.142;5.408;2022-08-19T03:57:44;8.50;;;4.40;;
71763;SDS011;59602;52.142;5.408;2022-08-19T04:00:12;8.50;;;4.50;;
71763;SDS011;59602;52.142;5.408;2022-08-19T04:02:40;7.82;;;4.40;;
71763;SDS011;59602;52.142;5.408;2022-08-19T04:05:21;9.73;;;4.47;;
71763;SDS011;59602;52.142;5.408;2022-08-19T04:07:53;7.85;;;4.28;;
71763;SDS011;59602;52.142;5.408;2022-08-19T04:10:20;6.70;;;3.83;;
71763;SDS011;59602;52.142;5.408;2022-08-19T04:12:46;8.20;;;4.27;;
71763;SDS011;59602;52.142;5.408;2022-08-19T04:15:14;7.10;;;3.83;;
71763;SDS011;59602;52.142;5.408;2022-08-19T04:17:41;7.07;;;3.90;;
71763;SDS011;59602;52.142;5.408;2022-08-19T04:20:07;5.97;;;3.63;;
71763;SDS011;59602;52.142;5.408;2022-08-19T04:22:34;5.95;;;3.53;;
71763;SDS011;59602;52.142;5.408;2022-08-19T04:25:01;7.87;;;4.10;;
71763;SDS011;59602;52.142;5.408;2022-08-19T04:27:27;6.93;;;4.57;;
71763;SDS011;59602;52.142;5.408;2022-08-19T04:29:54;6.63;;;4.13;;
71763;SDS011;59602;52.142;5.408;2022-08-19T04:32:21;7.63;;;4.28;;
71763;SDS011;59602;52.142;5.408;2022-08-19T04:34:48;8.52;;;3.80;;
71763;SDS011;59602;52.142;5.408;2022-08-19T04:37:35;6.77;;;3.80;;
71763;SDS011;59602;52.142;5.408;2022-08-19T04:40:03;7.57;;;4.47;;
71763;SDS011;59602;52.142;5.408;2022-08-19T04:42:50;6.75;;;3.85;;
71763;SDS011;59602;52.142;5.408;2022-08-19T04:45:16;6.70;;;3.92;;
71763;SDS011;59602;52.142;5.408;2022-08-19T04:47:43;10.25;;;4.20;;
71763;SDS011;59602;52.142;5.408;2022-08-19T04:50:22;7.60;;;3.87;;
71763;SDS011;59602;52.142;5.408;2022-08-19T04:52:50;8.48;;;4.13;;
71763;SDS011;59602;52.142;5.408;2022-08-19T04:55:19;9.50;;;4.38;;
71763;SDS011;59602;52.142;5.408;2022-08-19T04:57:45;7.47;;;3.65;;
71763;SDS011;59602;52.142;5.408;2022-08-19T05:00:12;7.28;;;3.97;;
71763;SDS011;59602;52.142;5.408;2022-08-19T05:02:40;7.07;;;4.13;;
71763;SDS011;59602;52.142;5.408;2022-08-19T05:05:06;6.35;;;3.45;;
71763;SDS011;59602;52.142;5.408;2022-08-19T05:07:34;8.43;;;3.25;;
71763;SDS011;59602;52.142;5.408;2022-08-19T05:10:00;6.80;;;3.53;;
71763;SDS011;59602;52.142;5.408;2022-08-19T05:12:28;8.52;;;3.78;;
71763;SDS011;59602;52.142;5.408;2022-08-19T05:14:57;7.67;;;4.10;;
71763;SDS011;59602;52.142;5.408;2022-08-19T05:17:25;7.85;;;4.28;;
71763;SDS011;59602;52.142;5.408;2022-08-19T05:19:56;5.55;;;3.60;;
71763;SDS011;59602;52.142;5.408;2022-08-19T05:22:43;5.60;;;3.65;;
71763;SDS011;59602;52.142;5.408;2022-08-19T05:25:13;5.18;;;3.30;;
71763;SDS011;59602;52.142;5.408;2022-08-19T05:27:44;5.47;;;3.47;;
71763;SDS011;59602;52.142;5.408;2022-08-19T05:30:11;5.72;;;3.50;;
71763;SDS011;59602;52.142;5.408;2022-08-19T05:32:38;6.93;;;4.07;;
71763;SDS011;59602;52.142;5.408;2022-08-19T05:35:05;8.63;;;3.83;;
71763;SDS011;59602;52.142;5.408;2022-08-19T05:37:32;6.70;;;4.03;;
71763;SDS011;59602;52.142;5.408;2022-08-19T05:39:59;6.80;;;3.90;;
71763;SDS011;59602;52.142;5.408;2022-08-19T05:42:26;6.88;;;4.18;;
71763;SDS011;59602;52.142;5.408;2022-08-19T05:44:52;5.60;;;3.53;;
71763;SDS011;59602;52.142;5.408;2022-08-19T05:47:19;8.25;;;4.28;;
71763;SDS011;59602;52.142;5.408;2022-08-19T05:49:46;8.77;;;4.60;;
71763;SDS011;59602;52.142;5.408;2022-08-19T05:52:16;8.73;;;4.67;;
71763;SDS011;59602;52.142;5.408;2022-08-19T05:54:44;6.43;;;3.75;;
71763;SDS011;59602;52.142;5.408;2022-08-19T05:57:17;6.93;;;4.57;;
71763;SDS011;59602;52.142;5.408;2022-08-19T05:59:45;8.88;;;4.22;;
71763;SDS011;59602;52.142;5.408;2022-08-19T06:02:14;9.10;;;3.95;;
71763;SDS011;59602;52.142;5.408;2022-08-19T06:04:41;8.83;;;4.27;;
71763;SDS011;59602;52.142;5.408;2022-08-19T06:07:09;7.70;;;4.32;;
71763;SDS011;59602;52.142;5.408;2022-08-19T06:09:38;8.63;;;4.47;;
71763;SDS011;59602;52.142;5.408;2022-08-19T06:12:08;8.25;;;4.72;;
71763;SDS011;59602;52.142;5.408;2022-08-19T06:14:35;10.50;;;5.80;;
71763;SDS011;59602;52.142;5.408;2022-08-19T06:17:05;12.93;;;6.73;;
71763;SDS011;59602;52.142;5.408;2022-08-19T06:19:32;14.43;;;7.32;;
71763;SDS011;59602;52.142;5.408;2022-08-19T06:25:50;19.08;;;9.65;;
71763;SDS011;59602;52.142;5.408;2022-08-19T06:31:43;20.93;;;10.63;;
71763;SDS011;59602;52.142;5.408;2022-08-19T06:34:11;29.55;;;12.57;;
71763;SDS011;59602;52.142;5.408;2022-08-19T06:36:40;26.00;;;12.00;;
71763;SDS011;59602;52.142;5.408;2022-08-19T06:39:11;30.58;;;13.90;;
71763;SDS011;59602;52.142;5.408;2022-08-19T06:41:41;28.58;;;14.10;;
71763;SDS011;59602;52.142;5.408;2022-08-19T06:44:17;30.87;;;14.27;;
71763;SDS011;59602;52.142;5.408;2022-08-19T06:46:45;28.13;;;13.95;;
71763;SDS011;59602;52.142;5.408;2022-08-19T06:49:20;34.47;;;15.25;;
71763;SDS011;59602;52.142;5.408;2022-08-19T06:51:48;33.60;;;15.70;;
71763;SDS011;59602;52.142;5.408;2022-08-19T06:54:17;32.53;;;15.23;;
71763;SDS011;59602;52.142;5.408;2022-08-19T06:56:45;32.00;;;14.73;;
71763;SDS011;59602;52.142;5.408;2022-08-19T06:59:14;35.65;;;15.75;;
71763;SDS011;59602;52.142;5.408;2022-08-19T07:01:44;40.65;;;16.50;;
71763;SDS011;59602;52.142;5.408;2022-08-19T07:04:15;39.08;;;16.17;;
71763;SDS011;59602;52.142;5.408;2022-08-19T07:06:45;46.58;;;17.77;;
71763;SDS011;59602;52.142;5.408;2022-08-19T07:09:20;45.57;;;17.30;;
71763;SDS011;59602;52.142;5.408;2022-08-19T07:11:49;45.92;;;17.95;;
71763;SDS011;59602;52.142;5.408;2022-08-19T07:14:18;47.70;;;17.90;;
71763;SDS011;59602;52.142;5.408;2022-08-19T07:16:48;45.10;;;18.08;;
71763;SDS011;59602;52.142;5.408;2022-08-19T07:19:16;47.20;;;19.10;;
71763;SDS011;59602;52.142;5.408;2022-08-19T07:21:46;51.93;;;20.27;;
71763;SDS011;59602;52.142;5.408;2022-08-19T07:24:16;50.47;;;19.95;;
71763;SDS011;59602;52.142;5.408;2022-08-19T07:26:43;45.28;;;19.23;;
71763;SDS011;59602;52.142;5.408;2022-08-19T07:29:10;47.10;;;19.55;;
71763;SDS011;59602;52.142;5.408;2022-08-19T07:31:38;45.10;;;19.27;;
71763;SDS011;59602;52.142;5.408;2022-08-19T07:34:09;49.93;;;20.03;;
71763;SDS011;59602;52.142;5.408;2022-08-19T07:36:39;47.97;;;21.00;;
71763;SDS011;59602;52.142;5.408;2022-08-19T07:39:10;45.55;;;19.58;;
71763;SDS011;59602;52.142;5.408;2022-08-19T07:41:39;47.47;;;19.83;;
71763;SDS011;59602;52.142;5.408;2022-08-19T07:44:07;48.15;;;19.52;;
71763;SDS011;59602;52.142;5.408;2022-08-19T07:46:35;43.63;;;21.13;;
71763;SDS011;59602;52.142;5.408;2022-08-19T07:49:04;49.55;;;20.58;;
71763;SDS011;59602;52.142;5.408;2022-08-19T07:51:32;44.30;;;20.13;;
71763;SDS011;59602;52.142;5.408;2022-08-19T07:54:02;44.53;;;20.02;;
71763;SDS011;59602;52.142;5.408;2022-08-19T07:56:29;44.70;;;20.60;;
71763;SDS011;59602;52.142;5.408;2022-08-19T07:58:56;42.30;;;19.47;;
71763;SDS011;59602;52.142;5.408;2022-08-19T08:01:24;44.83;;;20.33;;
71763;SDS011;59602;52.142;5.408;2022-08-19T08:03:53;48.25;;;20.20;;
71763;SDS011;59602;52.142;5.408;2022-08-19T08:06:41;44.28;;;20.38;;
71763;SDS011;59602;52.142;5.408;2022-08-19T08:09:29;45.30;;;20.77;;
71763;SDS011;59602;52.142;5.408;2022-08-19T08:11:59;42.80;;;20.10;;
71763;SDS011;59602;52.142;5.408;2022-08-19T08:14:49;39.97;;;18.25;;
71763;SDS011;59602;52.142;5.408;2022-08-19T08:17:22;36.03;;;18.08;;
71763;SDS011;59602;52.142;5.408;2022-08-19T08:20:11;37.38;;;17.55;;
71763;SDS011;59602;52.142;5.408;2022-08-19T08:22:42;33.95;;;17.05;;
71763;SDS011;59602;52.142;5.408;2022-08-19T08:25:27;34.57;;;17.53;;
71763;SDS011;59602;52.142;5.408;2022-08-19T08:27:59;35.08;;;16.30;;
71763;SDS011;59602;52.142;5.408;2022-08-19T08:30:27;32.55;;;16.30;;
71763;SDS011;59602;52.142;5.408;2022-08-19T08:32:58;31.70;;;16.27;;
71763;SDS011;59602;52.142;5.408;2022-08-19T08:35:24;32.33;;;15.45;;
71763;SDS011;59602;52.142;5.408;2022-08-19T08:37:52;29.90;;;15.10;;
71763;SDS011;59602;52.142;5.408;2022-08-19T08:40:22;30.10;;;15.15;;
71763;SDS011;59602;52.142;5.408;2022-08-19T08:42:57;28.52;;;15.25;;
71763;SDS011;59602;52.142;5.408;2022-08-19T08:45:38;30.05;;;14.70;;
71763;SDS011;59602;52.142;5.408;2022-08-19T08:48:22;24.77;;;13.98;;
71763;SDS011;59602;52.142;5.408;2022-08-19T08:50:57;29.13;;;14.33;;
71763;SDS011;59602;52.142;5.408;2022-08-19T08:53:30;25.92;;;13.68;;
71763;SDS011;59602;52.142;5.408;2022-08-19T08:56:05;26.67;;;13.90;;
71763;SDS011;59602;52.142;5.408;2022-08-19T09:01:19;25.58;;;12.70;;
71763;SDS011;59602;52.142;5.408;2022-08-19T09:03:46;25.23;;;12.53;;
71763;SDS011;59602;52.142;5.408;2022-08-19T09:06:28;23.52;;;11.77;;
71763;SDS011;59602;52.142;5.408;2022-08-19T09:09:04;24.02;;;12.98;;
71763;SDS011;59602;52.142;5.408;2022-08-19T09:11:49;23.88;;;11.70;;
71763;SDS011;59602;52.142;5.408;2022-08-19T09:17:14;25.30;;;13.00;;
71763;SDS011;59602;52.142;5.408;2022-08-19T09:19:49;22.50;;;11.15;;
71763;SDS011;59602;52.142;5.408;2022-08-19T09:22:19;24.52;;;11.52;;
71763;SDS011;59602;52.142;5.408;2022-08-19T09:24:51;20.00;;;11.63;;
71763;SDS011;59602;52.142;5.408;2022-08-19T09:27:18;25.65;;;11.77;;
71763;SDS011;59602;52.142;5.408;2022-08-19T09:29:47;20.37;;;11.33;;
71763;SDS011;59602;52.142;5.408;2022-08-19T09:32:15;20.77;;;11.65;;
71763;SDS011;59602;52.142;5.408;2022-08-19T09:34:52;22.98;;;11.57;;
71763;SDS011;59602;52.142;5.408;2022-08-19T09:37:21;18.48;;;10.60;;
71763;SDS011;59602;52.142;5.408;2022-08-19T09:39:50;21.27;;;11.02;;
71763;SDS011;59602;52.142;5.408;2022-08-19T09:42:16;21.33;;;11.27;;
71763;SDS011;59602;52.142;5.408;2022-08-19T09:45:00;19.83;;;11.07;;
71763;SDS011;59602;52.142;5.408;2022-08-19T09:47:30;22.67;;;12.18;;
71763;SDS011;59602;52.142;5.408;2022-08-19T09:49:56;21.08;;;10.43;;
71763;SDS011;59602;52.142;5.408;2022-08-19T09:52:24;17.77;;;10.13;;
71763;SDS011;59602;52.142;5.408;2022-08-19T09:54:58;18.27;;;10.27;;
71763;SDS011;59602;52.142;5.408;2022-08-19T09:57:24;18.02;;;10.88;;
71763;SDS011;59602;52.142;5.408;2022-08-19T09:59:51;14.73;;;9.40;;
71763;SDS011;59602;52.142;5.408;2022-08-19T10:02:18;16.33;;;8.90;;
71763;SDS011;59602;52.142;5.408;2022-08-19T10:04:47;18.08;;;9.55;;
71763;SDS011;59602;52.142;5.408;2022-08-19T10:07:32;17.13;;;8.83;;
71763;SDS011;59602;52.142;5.408;2022-08-19T10:10:03;16.27;;;9.13;;
71763;SDS011;59602;52.142;5.408;2022-08-19T10:12:33;14.80;;;9.18;;
71763;SDS011;59602;52.142;5.408;2022-08-19T10:15:00;16.25;;;10.10;;
71763;SDS011;59602;52.142;5.408;2022-08-19T10:17:28;19.88;;;9.93;;
71763;SDS011;59602;52.142;5.408;2022-08-19T10:19:58;15.67;;;8.90;;
71763;SDS011;59602;52.142;5.408;2022-08-19T10:22:26;15.07;;;8.85;;
71763;SDS011;59602;52.142;5.408;2022-08-19T10:24:53;18.70;;;10.82;;
71763;SDS011;59602;52.142;5.408;2022-08-19T10:27:20;18.10;;;11.23;;
71763;SDS011;59602;52.142;5.408;2022-08-19T10:29:46;15.60;;;10.32;;
71763;SDS011;59602;52.142;5.408;2022-08-19T10:32:13;16.73;;;10.03;;
71763;SDS011;59602;52.142;5.408;2022-08-19T10:34:41;15.35;;;10.00;;
71763;SDS011;59602;52.142;5.408;2022-08-19T10:37:14;23.00;;;12.38;;
71763;SDS011;59602;52.142;5.408;2022-08-19T10:39:49;22.05;;;12.38;;
71763;SDS011;59602;52.142;5.408;2022-08-19T10:42:16;19.23;;;11.50;;
71763;SDS011;59602;52.142;5.408;2022-08-19T10:44:44;18.43;;;11.27;;
71763;SDS011;59602;52.142;5.408;2022-08-19T10:47:12;21.15;;;11.75;;
71763;SDS011;59602;52.142;5.408;2022-08-19T10:49:51;15.63;;;10.88;;
71763;SDS011;59602;52.142;5.408;2022-08-19T10:52:38;21.05;;;11.75;;
71763;SDS011;59602;52.142;5.408;2022-08-19T10:55:16;16.15;;;10.32;;
71763;SDS011;59602;52.142;5.408;2022-08-19T10:58:09;17.83;;;11.10;;
71763;SDS011;59602;52.142;5.408;2022-08-19T11:00:37;19.75;;;12.38;;
71763;SDS011;59602;52.142;5.408;2022-08-19T11:03:03;16.23;;;11.70;;
71763;SDS011;59602;52.142;5.408;2022-08-19T11:05:30;20.05;;;12.52;;
71763;SDS011;59602;52.142;5.408;2022-08-19T11:08:05;19.13;;;12.70;;
71763;SDS011;59602;52.142;5.408;2022-08-19T11:10:49;20.63;;;13.53;;
71763;SDS011;59602;52.142;5.408;2022-08-19T11:13:19;22.55;;;14.55;;
71763;SDS011;59602;52.142;5.408;2022-08-19T11:15:46;22.02;;;14.82;;
71763;SDS011;59602;52.142;5.408;2022-08-19T11:18:13;21.48;;;14.85;;
71763;SDS011;59602;52.142;5.408;2022-08-19T11:20:40;18.38;;;13.13;;
71763;SDS011;59602;52.142;5.408;2022-08-19T11:23:06;20.53;;;12.47;;
71763;SDS011;59602;52.142;5.408;2022-08-19T11:25:33;20.05;;;13.25;;
71763;SDS011;59602;52.142;5.408;2022-08-19T11:28:01;26.70;;;15.88;;
71763;SDS011;59602;52.142;5.408;2022-08-19T11:30:28;20.30;;;13.52;;
71763;SDS011;59602;52.142;5.408;2022-08-19T11:32:54;21.05;;;13.07;;
71763;SDS011;59602;52.142;5.408;2022-08-19T11:35:21;19.97;;;13.57;;
71763;SDS011;59602;52.142;5.408;2022-08-19T11:37:50;21.00;;;14.30;;
71763;SDS011;59602;52.142;5.408;2022-08-19T11:40:16;21.00;;;13.48;;
71763;SDS011;59602;52.142;5.408;2022-08-19T11:42:43;19.27;;;13.00;;
71763;SDS011;59602;52.142;5.408;2022-08-19T11:45:23;19.95;;;12.80;;
71763;SDS011;59602;52.142;5.408;2022-08-19T11:47:50;23.47;;;14.23;;
71763;SDS011;59602;52.142;5.408;2022-08-19T11:50:17;17.08;;;11.98;;
71763;SDS011;59602;52.142;5.408;2022-08-19T11:52:44;18.65;;;12.70;;
71763;SDS011;59602;52.142;5.408;2022-08-19T11:55:12;18.23;;;12.70;;
71763;SDS011;59602;52.142;5.408;2022-08-19T11:57:39;17.77;;;12.23;;
71763;SDS011;59602;52.142;5.408;2022-08-19T12:00:08;23.57;;;14.77;;
71763;SDS011;59602;52.142;5.408;2022-08-19T12:02:37;22.23;;;13.88;;
71763;SDS011;59602;52.142;5.408;2022-08-19T12:05:04;25.38;;;14.63;;
71763;SDS011;59602;52.142;5.408;2022-08-19T12:07:37;20.15;;;13.65;;
71763;SDS011;59602;52.142;5.408;2022-08-19T12:10:04;22.38;;;12.48;;
71763;SDS011;59602;52.142;5.408;2022-08-19T12:12:30;23.40;;;14.20;;
71763;SDS011;59602;52.142;5.408;2022-08-19T12:14:57;21.38;;;12.02;;
71763;SDS011;59602;52.142;5.408;2022-08-19T12:17:25;21.20;;;12.68;;
71763;SDS011;59602;52.142;5.408;2022-08-19T12:19:53;22.10;;;13.88;;
71763;SDS011;59602;52.142;5.408;2022-08-19T12:22:19;19.50;;;11.88;;
71763;SDS011;59602;52.142;5.408;2022-08-19T12:24:47;26.23;;;13.70;;
71763;SDS011;59602;52.142;5.408;2022-08-19T12:27:14;20.67;;;13.32;;
71763;SDS011;59602;52.142;5.408;2022-08-19T12:30:02;23.23;;;13.63;;
71763;SDS011;59602;52.142;5.408;2022-08-19T12:32:30;20.00;;;13.52;;
71763;SDS011;59602;52.142;5.408;2022-08-19T12:34:56;21.00;;;13.02;;
71763;SDS011;59602;52.142;5.408;2022-08-19T12:37:23;19.80;;;12.93;;
71763;SDS011;59602;52.142;5.408;2022-08-19T12:39:50;23.95;;;14.57;;
71763;SDS011;59602;52.142;5.408;2022-08-19T12:42:17;23.65;;;16.00;;
71763;SDS011;59602;52.142;5.408;2022-08-19T12:44:44;23.20;;;15.10;;
71763;SDS011;59602;52.142;5.408;2022-08-19T12:47:12;18.33;;;12.68;;
71763;SDS011;59602;52.142;5.408;2022-08-19T12:49:41;17.53;;;11.27;;
71763;SDS011;59602;52.142;5.408;2022-08-19T12:52:21;15.05;;;11.10;;
71763;SDS011;59602;52.142;5.408;2022-08-19T12:54:49;15.02;;;10.25;;
71763;SDS011;59602;52.142;5.408;2022-08-19T12:57:20;15.70;;;11.10;;
71763;SDS011;59602;52.142;5.408;2022-08-19T13:29:14;13.23;;;10.25;;
71763;SDS011;59602;52.142;5.408;2022-08-19T13:31:59;22.70;;;15.20;;
71763;SDS011;59602;52.142;5.408;2022-08-19T13:34:44;22.70;;;15.93;;
71763;SDS011;59602;52.142;5.408;2022-08-19T13:37:12;23.63;;;16.45;;
71763;SDS011;59602;52.142;5.408;2022-08-19T13:39:39;23.83;;;15.32;;
71763;SDS011;59602;52.142;5.408;2022-08-19T13:42:06;18.60;;;12.50;;
71763;SDS011;59602;52.142;5.408;2022-08-19T13:44:35;28.10;;;16.63;;
71763;SDS011;59602;52.142;5.408;2022-08-19T13:47:05;22.27;;;16.05;;
71763;SDS011;59602;52.142;5.408;2022-08-19T13:49:53;22.00;;;15.77;;
71763;SDS011;59602;52.142;5.408;2022-08-19T14:00:50;20.73;;;14.85;;
71763;SDS011;59602;52.142;5.408;2022-08-19T14:03:17;21.90;;;15.82;;
71763;SDS011;59602;52.142;5.408;2022-08-19T14:05:44;18.70;;;14.75;;
71763;SDS011;59602;52.142;5.408;2022-08-19T14:08:14;20.45;;;14.38;;
71763;SDS011;59602;52.142;5.408;2022-08-19T14:11:11;22.73;;;14.57;;
71763;SDS011;59602;52.142;5.408;2022-08-19T14:19:35;24.13;;;15.45;;
71763;SDS011;59602;52.142;5.408;2022-08-19T14:22:06;21.42;;;15.00;;
71763;SDS011;59602;52.142;5.408;2022-08-19T14:24:32;18.17;;;13.47;;
71763;SDS011;59602;52.142;5.408;2022-08-19T14:27:00;15.40;;;11.15;;
71763;SDS011;59602;52.142;5.408;2022-08-19T14:29:30;19.50;;;12.82;;
71763;SDS011;59602;52.142;5.408;2022-08-19T14:31:56;17.27;;;11.43;;
71763;SDS011;59602;52.142;5.408;2022-08-19T14:34:25;20.27;;;11.25;;
71763;SDS011;59602;52.142;5.408;2022-08-19T14:36:55;12.77;;;8.93;;
71763;SDS011;59602;52.142;5.408;2022-08-19T14:39:21;11.77;;;8.20;;
71763;SDS011;59602;52.142;5.408;2022-08-19T14:41:48;14.80;;;8.80;;
71763;SDS011;59602;52.142;5.408;2022-08-19T14:44:15;11.65;;;8.27;;
71763;SDS011;59602;52.142;5.408;2022-08-19T14:46:42;12.65;;;8.40;;
71763;SDS011;59602;52.142;5.408;2022-08-19T14:49:14;11.77;;;7.80;;
71763;SDS011;59602;52.142;5.408;2022-08-19T14:51:44;13.27;;;8.15;;
71763;SDS011;59602;52.142;5.408;2022-08-19T14:54:13;13.38;;;8.90;;
71763;SDS011;59602;52.142;5.408;2022-08-19T14:56:41;11.05;;;8.18;;
71763;SDS011;59602;52.142;5.408;2022-08-19T14:59:07;12.10;;;7.68;;
71763;SDS011;59602;52.142;5.408;2022-08-19T15:01:34;10.57;;;6.93;;
71763;SDS011;59602;52.142;5.408;2022-08-19T15:04:02;10.20;;;7.47;;
71763;SDS011;59602;52.142;5.408;2022-08-19T15:06:29;9.90;;;7.10;;
71763;SDS011;59602;52.142;5.408;2022-08-19T15:08:57;9.52;;;5.93;;
71763;SDS011;59602;52.142;5.408;2022-08-19T15:11:29;8.07;;;5.88;;
71763;SDS011;59602;52.142;5.408;2022-08-19T15:13:58;9.40;;;6.40;;
71763;SDS011;59602;52.142;5.408;2022-08-19T15:16:26;8.48;;;6.20;;
71763;SDS011;59602;52.142;5.408;2022-08-19T15:18:56;8.48;;;6.22;;
71763;SDS011;59602;52.142;5.408;2022-08-19T15:22:25;7.65;;;5.53;;
71763;SDS011;59602;52.142;5.408;2022-08-19T15:25:02;7.95;;;4.80;;
71763;SDS011;59602;52.142;5.408;2022-08-19T15:27:37;5.87;;;4.90;;
71763;SDS011;59602;52.142;5.408;2022-08-19T15:30:09;7.97;;;6.78;;
71763;SDS011;59602;52.142;5.408;2022-08-19T15:32:37;7.75;;;5.13;;
71763;SDS011;59602;52.142;5.408;2022-08-19T15:35:06;7.97;;;5.60;;
71763;SDS011;59602;52.142;5.408;2022-08-19T15:37:36;7.10;;;5.53;;
71763;SDS011;59602;52.142;5.408;2022-08-19T15:40:04;6.87;;;4.80;;
71763;SDS011;59602;52.142;5.408;2022-08-19T15:42:33;8.98;;;5.72;;
71763;SDS011;59602;52.142;5.408;2022-08-19T15:45:02;6.50;;;4.50;;
71763;SDS011;59602;52.142;5.408;2022-08-19T15:48:04;6.10;;;4.28;;
71763;SDS011;59602;52.142;5.408;2022-08-19T15:50:34;6.07;;;5.07;;
71763;SDS011;59602;52.142;5.408;2022-08-19T15:53:18;5.50;;;4.27;;